Galicia — ECEC — position and weather

sailwx.info

Track history (hours):
 
Tides and Currents Weather Stations Pressure Air Temp Water Temp Dewpoint Dewpoint Depression Visibility Wind Speed Wind Dir Waves Ship Positions

Galicia

Last reported at 2015-May-23 05:33 UTC. Time now 2015-May-23 16:30 UTC.
Position N 36°06' W 008°51'.

Length 149 m; draft 5.8 m.

Type: Cargo ship. MMSI: 224548000.

Date/timePositionNaut miles runAvg speedWind from/ knotsBaromVisibWave heightAir tempDewpointWater temp
2015-May-23 05:33N 36°06' W 008°51'10 9.5
2015-May-23 04:33N 36°14' W 008°56'10 9.8
2015-May-23 03:32N 36°23' W 009°01'9 9.4
2015-May-23 02:32N 36°31' W 009°07'9 9.5
2015-May-23 01:33N 36°35' W 009°18'10 9.7
2015-May-23 00:30N 36°42' W 009°27'9 9.1
2015-May-22 23:34N 36°49' W 009°33'1010.0
2015-May-22 22:33N 36°59' W 009°36'10 9.8
2015-May-22 21:33N 37°08' W 009°39'10 9.8
2015-May-22 20:33N 37°18' W 009°42'10 9.8
2015-May-22 19:33N 37°28' W 009°44'1010.0
2015-May-22 18:33N 37°37' W 009°47'1010.4
2015-May-22 17:33N 37°47' W 009°50'1110.6
2015-May-22 16:33N 37°58' W 009°53'1110.7
2015-May-22 15:33N 38°08' W 009°56'1010.5
2015-May-22 14:34N 38°18' W 009°59'1110.6
2015-May-22 13:33N 38°29' W 010°02'1010.3
2015-May-22 12:33N 38°39' W 010°05'1010.2
2015-May-22 11:33N 38°49' W 010°06'1010.2
2015-May-22 10:33N 38°59' W 010°04'1110.3
2015-May-22 09:30N 39°09' W 010°00'1010.1
2015-May-22 08:33N 39°19' W 009°57'10 9.7
2015-May-22 07:33N 39°28' W 009°54'10 9.8
2015-May-22 06:33N 39°37' W 009°51'10 9.8
2015-May-22 05:33N 39°47' W 009°48'10 9.6
2015-May-22 04:33N 39°56' W 009°45'10 9.6
2015-May-22 03:33N 40°05' W 009°42'10 9.6
2015-May-22 02:33N 40°15' W 009°38'20 9.8
2015-May-22 00:28N 40°35' W 009°32'9 9.6
2015-May-21 23:33N 40°43' W 009°29'10 9.9
2015-May-21 22:33N 40°53' W 009°26'  
2015-May-18 14:24N 50°30' W 001°12'911.0
2015-May-18 13:33N 50°35' W 000°60'9 8.7
2015-May-18 12:33N 50°43' W 001°02'1111.5
2015-May-18 11:33N 50°49' W 001°18'6 0.4
2015-May-17 20:33N 50°53' W 001°24'9 9.5
2015-May-17 19:33N 50°47' W 001°13'1110.6
2015-May-17 18:33N 50°42' W 000°58'4 3.6
2015-May-17 17:33N 50°39' W 001°01'0 0.0
2015-May-17 16:33N 50°39' W 001°00'0 0.1
2015-May-17 15:33N 50°39' W 001°01'0 0.1
2015-May-17 14:33N 50°39' W 001°01'0 0.0
2015-May-17 13:33N 50°39' W 001°01'4 3.7
2015-May-17 12:33N 50°38' W 000°55'1212.1
2015-May-17 11:33N 50°36' W 000°36'28 9.0
2015-May-17 08:30N 50°33' E 000°07'7 7.2
2015-May-17 07:33N 50°35' E 000°17'8 7.6
2015-May-17 06:34N 50°37' E 000°29'9 9.2
2015-May-17 05:34N 50°41' E 000°42'1110.8
2015-May-17 04:34N 50°47' E 000°55'1110.9
2015-May-17 03:33N 50°54' E 001°09'1010.2
2015-May-17 02:33N 51°01' E 001°21'9 8.8
2015-May-17 01:34N 51°07' E 001°32'7 7.2
2015-May-17 00:34N 51°11' E 001°40'7 7.0
2015-May-16 23:34N 51°16' E 001°48'7 7.4
2015-May-16 22:33N 51°22' E 001°56'7 7.1
2015-May-16 21:34N 51°23' E 002°07'9 9.1
2015-May-16 20:34N 51°21' E 002°22'1110.5
2015-May-16 19:33N 51°23' E 002°38'1514.6
2015-May-16 18:33N 51°22' E 003°02'7 6.7
2015-May-16 17:28N 51°20' E 003°13'2 1.8
2015-May-16 16:33N 51°19' E 003°14'0 0.0
2015-May-16 15:33N 51°19' E 003°14'0 0.0
2015-May-16 14:33N 51°19' E 003°14'0 0.0
2015-May-16 13:33N 51°19' E 003°14'0 0.0
2015-May-16 12:33N 51°19' E 003°14'0 0.0
2015-May-16 11:33N 51°19' E 003°14'0 0.0
2015-May-16 10:33N 51°19' E 003°14'0 0.0
2015-May-16 09:33N 51°19' E 003°14'0 0.0
2015-May-16 08:33N 51°19' E 003°14'0 0.0
2015-May-16 07:33N 51°19' E 003°14'0 0.0
2015-May-16 06:33N 51°19' E 003°14'0 0.0
2015-May-16 05:33N 51°18' E 003°14'0 0.0
2015-May-16 04:33N 51°19' E 003°14'0 0.0
2015-May-16 03:33N 51°19' E 003°14'0 0.0
2015-May-16 02:33N 51°19' E 003°14'0 0.0
2015-May-16 01:33N 51°18' E 003°14'0 0.0
2015-May-16 00:30N 51°18' E 003°14'0 0.0
2015-May-15 23:30N 51°19' E 003°14'0 0.0
2015-May-15 22:24N 51°19' E 003°14'0 0.0
2015-May-15 21:33N 51°19' E 003°14'0 0.0
2015-May-15 20:33N 51°19' E 003°14'0 0.0
2015-May-15 19:33N 51°18' E 003°14'0 0.0
2015-May-15 18:33N 51°19' E 003°14'0 0.0
2015-May-15 17:33N 51°19' E 003°14'0 0.0
2015-May-15 16:33N 51°19' E 003°14'0 0.0
2015-May-15 15:32N 51°19' E 003°14'0 0.0
2015-May-15 14:32N 51°19' E 003°14'0 0.0
2015-May-15 13:32N 51°18' E 003°14'0 0.0
2015-May-15 12:32N 51°19' E 003°14'0 0.0
2015-May-15 11:32N 51°19' E 003°14'0 0.0
2015-May-15 10:29N 51°19' E 003°14'0 0.0
2015-May-15 09:29N 51°18' E 003°14'0 0.0
2015-May-15 08:32N 51°19' E 003°14'0 0.0
2015-May-15 07:32N 51°18' E 003°14'0 0.0
2015-May-15 06:32N 51°19' E 003°14'0 0.0
2015-May-15 05:32N 51°19' E 003°14'0 0.0
2015-May-15 04:29N 51°19' E 003°14'0 0.0
2015-May-15 03:32N 51°19' E 003°14'0 0.0
2015-May-15 02:32N 51°19' E 003°14'0 0.0
2015-May-15 01:32N 51°18' E 003°14'0 0.0
2015-May-15 00:32N 51°19' E 003°14'0 0.0
2015-May-14 23:32N 51°19' E 003°14'0 0.0
2015-May-14 22:32N 51°19' E 003°14'0 0.0
2015-May-14 21:32N 51°18' E 003°14'0 0.0
2015-May-14 20:32N 51°19' E 003°14'0 0.0
2015-May-14 19:32N 51°18' E 003°14'0 0.0
2015-May-14 18:33N 51°19' E 003°14'2 1.7
2015-May-14 17:33N 51°20' E 003°13'2 1.9
2015-May-14 16:34N 51°22' E 003°11'1211.6
2015-May-14 15:33N 51°22' E 002°53'8 7.9
2015-May-14 14:33N 51°24' E 002°41'8 7.8
2015-May-14 13:33N 51°32' E 002°41'94 9.2
2015-May-14 03:21N 52°55' E 003°55'44 9.2
2015-May-13 22:33N 53°29' E 004°41'1111.1
2015-May-13 21:33N 53°33' E 004°58'1111.5
2015-May-13 20:33N 53°37' E 005°16'1110.9
2015-May-13 19:33N 53°40' E 005°34'1110.5
2015-May-13 18:33N 53°43' E 005°51'7 7.2
2015-May-13 17:33N 53°40' E 006°02'8 8.4
2015-May-13 16:33N 53°39' E 006°16'1310.3
2015-May-13 15:19N 53°35' E 006°36'1012.5
2015-May-13 14:33N 53°30' E 006°49'1211.8
2015-May-13 13:33N 53°20' E 007°00'7 6.3
2015-May-13 12:31N 53°20' E 007°11'0 0.0
2015-May-13 11:28N 53°20' E 007°11'0 0.0
2015-May-13 10:19N 53°20' E 007°11'0 0.0
2015-May-13 09:31N 53°20' E 007°11'0 0.0
2015-May-13 08:28N 53°20' E 007°11'0 0.0
2015-May-13 07:31N 53°20' E 007°11'0 0.0
2015-May-13 06:31N 53°20' E 007°11'  
Track history (hours):
 
Tides and Currents Weather Stations Pressure Air Temp Water Temp Dewpoint Dewpoint Depression Visibility Wind Speed Wind Dir Waves Ship Positions

Galicia

Last reported at 2015-May-23 05:33 UTC. Time now 2015-May-23 16:30 UTC.
Position N 36°06' W 008°51'.

Length 149 m; draft 5.8 m.

Type: Cargo ship. MMSI: 224548000.

Date/timePositionNaut miles runAvg speedWind from/ knotsBaromVisibWave heightAir tempDewpointWater temp
2015-May-23 05:33N 36°06' W 008°51'10 9.5
2015-May-23 04:33N 36°14' W 008°56'10 9.8
2015-May-23 03:32N 36°23' W 009°01'9 9.4
2015-May-23 02:32N 36°31' W 009°07'9 9.5
2015-May-23 01:33N 36°35' W 009°18'10 9.7
2015-May-23 00:30N 36°42' W 009°27'9 9.1
2015-May-22 23:34N 36°49' W 009°33'1010.0
2015-May-22 22:33N 36°59' W 009°36'10 9.8
2015-May-22 21:33N 37°08' W 009°39'10 9.8
2015-May-22 20:33N 37°18' W 009°42'10 9.8
2015-May-22 19:33N 37°28' W 009°44'1010.0
2015-May-22 18:33N 37°37' W 009°47'1010.4
2015-May-22 17:33N 37°47' W 009°50'1110.6
2015-May-22 16:33N 37°58' W 009°53'1110.7
2015-May-22 15:33N 38°08' W 009°56'1010.5
2015-May-22 14:34N 38°18' W 009°59'1110.6
2015-May-22 13:33N 38°29' W 010°02'1010.3
2015-May-22 12:33N 38°39' W 010°05'1010.2
2015-May-22 11:33N 38°49' W 010°06'1010.2
2015-May-22 10:33N 38°59' W 010°04'1110.3
2015-May-22 09:30N 39°09' W 010°00'1010.1
2015-May-22 08:33N 39°19' W 009°57'10 9.7
2015-May-22 07:33N 39°28' W 009°54'10 9.8
2015-May-22 06:33N 39°37' W 009°51'10 9.8
2015-May-22 05:33N 39°47' W 009°48'10 9.6
2015-May-22 04:33N 39°56' W 009°45'10 9.6
2015-May-22 03:33N 40°05' W 009°42'10 9.6
2015-May-22 02:33N 40°15' W 009°38'20 9.8
2015-May-22 00:28N 40°35' W 009°32'9 9.6
2015-May-21 23:33N 40°43' W 009°29'10 9.9
2015-May-21 22:33N 40°53' W 009°26'  
2015-May-18 14:24N 50°30' W 001°12'911.0
2015-May-18 13:33N 50°35' W 000°60'9 8.7
2015-May-18 12:33N 50°43' W 001°02'1111.5
2015-May-18 11:33N 50°49' W 001°18'6 0.4
2015-May-17 20:33N 50°53' W 001°24'9 9.5
2015-May-17 19:33N 50°47' W 001°13'1110.6
2015-May-17 18:33N 50°42' W 000°58'4 3.6
2015-May-17 17:33N 50°39' W 001°01'0 0.0
2015-May-17 16:33N 50°39' W 001°00'0 0.1
2015-May-17 15:33N 50°39' W 001°01'0 0.1
2015-May-17 14:33N 50°39' W 001°01'0 0.0
2015-May-17 13:33N 50°39' W 001°01'4 3.7
2015-May-17 12:33N 50°38' W 000°55'1212.1
2015-May-17 11:33N 50°36' W 000°36'28 9.0
2015-May-17 08:30N 50°33' E 000°07'7 7.2
2015-May-17 07:33N 50°35' E 000°17'8 7.6
2015-May-17 06:34N 50°37' E 000°29'9 9.2
2015-May-17 05:34N 50°41' E 000°42'1110.8
2015-May-17 04:34N 50°47' E 000°55'1110.9
2015-May-17 03:33N 50°54' E 001°09'1010.2
2015-May-17 02:33N 51°01' E 001°21'9 8.8
2015-May-17 01:34N 51°07' E 001°32'7 7.2
2015-May-17 00:34N 51°11' E 001°40'7 7.0
2015-May-16 23:34N 51°16' E 001°48'7 7.4
2015-May-16 22:33N 51°22' E 001°56'7 7.1
2015-May-16 21:34N 51°23' E 002°07'9 9.1
2015-May-16 20:34N 51°21' E 002°22'1110.5
2015-May-16 19:33N 51°23' E 002°38'1514.6
2015-May-16 18:33N 51°22' E 003°02'7 6.7
2015-May-16 17:28N 51°20' E 003°13'2 1.8
2015-May-16 16:33N 51°19' E 003°14'0 0.0
2015-May-16 15:33N 51°19' E 003°14'0 0.0
2015-May-16 14:33N 51°19' E 003°14'0 0.0
2015-May-16 13:33N 51°19' E 003°14'0 0.0
2015-May-16 12:33N 51°19' E 003°14'0 0.0
2015-May-16 11:33N 51°19' E 003°14'0 0.0
2015-May-16 10:33N 51°19' E 003°14'0 0.0
2015-May-16 09:33N 51°19' E 003°14'0 0.0
2015-May-16 08:33N 51°19' E 003°14'0 0.0
2015-May-16 07:33N 51°19' E 003°14'0 0.0
2015-May-16 06:33N 51°19' E 003°14'0 0.0
2015-May-16 05:33N 51°18' E 003°14'0 0.0
2015-May-16 04:33N 51°19' E 003°14'0 0.0
2015-May-16 03:33N 51°19' E 003°14'0 0.0
2015-May-16 02:33N 51°19' E 003°14'0 0.0
2015-May-16 01:33N 51°18' E 003°14'0 0.0
2015-May-16 00:30N 51°18' E 003°14'0 0.0
2015-May-15 23:30N 51°19' E 003°14'0 0.0
2015-May-15 22:24N 51°19' E 003°14'0 0.0
2015-May-15 21:33N 51°19' E 003°14'0 0.0
2015-May-15 20:33N 51°19' E 003°14'0 0.0
2015-May-15 19:33N 51°18' E 003°14'0 0.0
2015-May-15 18:33N 51°19' E 003°14'0 0.0
2015-May-15 17:33N 51°19' E 003°14'0 0.0
2015-May-15 16:33N 51°19' E 003°14'0 0.0
2015-May-15 15:32N 51°19' E 003°14'0 0.0
2015-May-15 14:32N 51°19' E 003°14'0 0.0
2015-May-15 13:32N 51°18' E 003°14'0 0.0
2015-May-15 12:32N 51°19' E 003°14'0 0.0
2015-May-15 11:32N 51°19' E 003°14'0 0.0
2015-May-15 10:29N 51°19' E 003°14'0 0.0
2015-May-15 09:29N 51°18' E 003°14'0 0.0
2015-May-15 08:32N 51°19' E 003°14'0 0.0
2015-May-15 07:32N 51°18' E 003°14'0 0.0
2015-May-15 06:32N 51°19' E 003°14'0 0.0
2015-May-15 05:32N 51°19' E 003°14'0 0.0
2015-May-15 04:29N 51°19' E 003°14'0 0.0
2015-May-15 03:32N 51°19' E 003°14'0 0.0
2015-May-15 02:32N 51°19' E 003°14'0 0.0
2015-May-15 01:32N 51°18' E 003°14'0 0.0
2015-May-15 00:32N 51°19' E 003°14'0 0.0
2015-May-14 23:32N 51°19' E 003°14'0 0.0
2015-May-14 22:32N 51°19' E 003°14'0 0.0
2015-May-14 21:32N 51°18' E 003°14'0 0.0
2015-May-14 20:32N 51°19' E 003°14'0 0.0
2015-May-14 19:32N 51°18' E 003°14'0 0.0
2015-May-14 18:33N 51°19' E 003°14'2 1.7
2015-May-14 17:33N 51°20' E 003°13'2 1.9
2015-May-14 16:34N 51°22' E 003°11'1211.6
2015-May-14 15:33N 51°22' E 002°53'8 7.9
2015-May-14 14:33N 51°24' E 002°41'8 7.8
2015-May-14 13:33N 51°32' E 002°41'94 9.2
2015-May-14 03:21N 52°55' E 003°55'44 9.2
2015-May-13 22:33N 53°29' E 004°41'1111.1
2015-May-13 21:33N 53°33' E 004°58'1111.5
2015-May-13 20:33N 53°37' E 005°16'1110.9
2015-May-13 19:33N 53°40' E 005°34'1110.5
2015-May-13 18:33N 53°43' E 005°51'7 7.2
2015-May-13 17:33N 53°40' E 006°02'8 8.4
2015-May-13 16:33N 53°39' E 006°16'1310.3
2015-May-13 15:19N 53°35' E 006°36'1012.5
2015-May-13 14:33N 53°30' E 006°49'1211.8
2015-May-13 13:33N 53°20' E 007°00'7 6.3
2015-May-13 12:31N 53°20' E 007°11'0 0.0
2015-May-13 11:28N 53°20' E 007°11'0 0.0
2015-May-13 10:19N 53°20' E 007°11'0 0.0
2015-May-13 09:31N 53°20' E 007°11'0 0.0
2015-May-13 08:28N 53°20' E 007°11'0 0.0
2015-May-13 07:31N 53°20' E 007°11'0 0.0
2015-May-13 06:31N 53°20' E 007°11'  

Dump ship's entire track history